Time;durP1;ratioP1;P1;durP2;ratioP2;P2;SDS_P1;SDS_P2;PMS_P1;PMS_P2;Temp;Humidity;BMP_temperature;BMP_pressure;BME280_temperature;BME280_humidity;BME280_pressure;Samples;Min_cycle;Max_cycle;Signal;HPM_P1;HPM_P2
2023/12/01 00:02:24;;;;;;;39.42;32.75;;;;;;;2.28;84.18;96633.94;4934796;28;20472;-73
2023/12/01 00:04:50;;;;;;;37.33;32.50;;;;;;;2.36;84.20;96647.69;4946032;28;20030;-74
2023/12/01 00:07:15;;;;;;;36.45;30.65;;;;;;;2.36;83.82;96626.44;4939096;28;20043;-73
2023/12/01 00:09:41;;;;;;;38.85;33.88;;;;;;;2.33;84.04;96629.56;4971380;28;20066;-74
2023/12/01 00:12:07;;;;;;;40.63;33.45;;;;;;;2.43;83.74;96653.69;4968900;28;20058;-74
2023/12/01 00:14:32;;;;;;;39.30;33.65;;;;;;;2.36;83.93;96655.63;4970907;28;20114;-73
2023/12/01 00:16:58;;;;;;;36.60;32.58;;;;;;;2.27;84.09;96674.81;4967675;28;20047;-74
2023/12/01 00:19:23;;;;;;;36.58;31.92;;;;;;;2.19;84.72;96652.06;4952470;28;20101;-74
2023/12/01 00:21:49;;;;;;;36.25;31.23;;;;;;;2.36;85.02;96671.56;4965779;28;20058;-72
2023/12/01 00:24:14;;;;;;;40.08;33.30;;;;;;;2.39;84.03;96663.16;4955250;28;20069;-73
2023/12/01 00:26:40;;;;;;;44.65;37.10;;;;;;;2.35;84.12;96654.03;4953070;28;20125;-73
2023/12/01 00:29:05;;;;;;;41.13;35.55;;;;;;;2.41;83.91;96666.38;4976699;28;20030;-72
2023/12/01 00:31:31;;;;;;;39.15;34.92;;;;;;;2.44;83.85;96665.94;4929488;28;20035;-72
2023/12/01 00:33:56;;;;;;;37.55;32.22;;;;;;;2.46;84.08;96665.69;4971555;28;20030;-72
2023/12/01 00:36:21;;;;;;;38.95;33.67;;;;;;;2.36;84.26;96653.00;4969519;28;20034;-72
2023/12/01 00:38:47;;;;;;;39.22;32.95;;;;;;;2.38;83.90;96666.84;4932822;28;20482;-72
2023/12/01 00:41:12;;;;;;;42.72;35.95;;;;;;;2.20;84.64;96650.19;4957799;28;20046;-72
2023/12/01 00:43:38;;;;;;;42.28;33.80;;;;;;;2.15;85.01;96682.75;4927734;28;20015;-73
2023/12/01 00:46:04;;;;;;;41.83;35.38;;;;;;;2.06;84.33;96662.88;4973419;28;20034;-72
2023/12/01 00:48:30;;;;;;;43.17;36.72;;;;;;;2.11;84.64;96657.69;4937025;28;20039;-73
2023/12/01 00:50:56;;;;;;;40.67;35.40;;;;;;;2.10;84.69;96648.13;4972792;28;20026;-72
2023/12/01 00:53:21;;;;;;;42.45;36.00;;;;;;;2.05;84.93;96661.28;4969312;28;20479;-72
2023/12/01 00:55:47;;;;;;;41.42;35.38;;;;;;;2.04;84.89;96672.94;4956906;28;20034;-74
2023/12/01 00:58:12;;;;;;;42.97;37.42;;;;;;;2.03;85.19;96668.66;4974847;28;20554;-73
2023/12/01 01:00:39;;;;;;;43.25;36.78;;;;;;;1.92;85.30;96661.47;4949349;28;20507;-72
2023/12/01 01:03:06;;;;;;;45.40;37.47;;;;;;;2.02;85.07;96677.66;4974546;28;20038;-73
2023/12/01 01:05:31;;;;;;;45.40;38.75;;;;;;;2.00;85.63;96648.69;4958278;28;20118;-72
2023/12/01 01:07:57;;;;;;;41.80;35.75;;;;;;;2.03;84.54;96615.56;4942623;28;21441;-73
2023/12/01 01:10:22;;;;;;;43.53;36.88;;;;;;;2.13;85.23;96637.03;4972083;28;20117;-72
2023/12/01 01:12:48;;;;;;;44.17;36.55;;;;;;;2.17;85.54;96638.19;4932879;28;20024;-71
2023/12/01 01:15:14;;;;;;;46.63;37.80;;;;;;;2.19;84.51;96657.38;4971456;28;20137;-70
2023/12/01 01:17:39;;;;;;;43.38;36.55;;;;;;;2.18;84.94;96655.75;4971224;28;20407;-71
2023/12/01 01:20:05;;;;;;;39.92;34.55;;;;;;;2.17;84.96;96651.47;4957757;28;20055;-71
2023/12/01 01:22:30;;;;;;;42.65;37.95;;;;;;;2.20;84.94;96658.97;4969022;28;20027;-71
2023/12/01 01:24:56;;;;;;;46.00;37.42;;;;;;;2.20;84.37;96680.22;4973955;28;20043;-71
2023/12/01 01:27:22;;;;;;;42.95;36.63;;;;;;;2.18;85.12;96676.19;4974013;28;20027;-71
2023/12/01 01:29:47;;;;;;;45.38;38.13;;;;;;;2.20;84.69;96682.06;4956829;28;20051;-71
2023/12/01 01:32:13;;;;;;;46.50;39.15;;;;;;;2.20;84.64;96679.41;4957958;28;20031;-71
2023/12/01 01:34:39;;;;;;;46.33;38.78;;;;;;;2.15;84.85;96679.31;4959716;28;20147;-71
2023/12/01 01:37:07;;;;;;;46.95;39.20;;;;;;;2.10;84.99;96687.97;4941807;28;20479;-71
2023/12/01 01:39:32;;;;;;;47.63;39.65;;;;;;;2.13;85.25;96697.28;4959206;28;20093;-71
2023/12/01 01:41:58;;;;;;;42.72;36.60;;;;;;;2.10;85.26;96683.44;4958584;28;20114;-72
2023/12/01 01:44:23;;;;;;;46.65;38.65;;;;;;;2.17;85.09;96680.66;4972394;28;20027;-72
2023/12/01 01:46:50;;;;;;;39.72;35.08;;;;;;;2.23;84.69;96684.28;4933269;28;20498;-72
2023/12/01 01:49:19;;;;;;;46.08;37.90;;;;;;;2.20;84.88;96674.91;4956589;28;20035;-72
2023/12/01 01:51:45;;;;;;;44.03;36.92;;;;;;;2.28;85.18;96687.88;4932039;28;20031;-71
2023/12/01 01:54:11;;;;;;;47.33;39.63;;;;;;;2.19;84.83;96683.94;4941921;28;20542;-72
2023/12/01 01:56:36;;;;;;;45.25;38.60;;;;;;;2.18;85.07;96692.94;4953707;28;20027;-72
2023/12/01 01:59:02;;;;;;;47.03;39.42;;;;;;;2.23;84.83;96694.91;4971786;28;20050;-71
2023/12/01 02:01:27;;;;;;;45.92;39.95;;;;;;;2.18;84.50;96677.00;4935474;28;20061;-71
2023/12/01 02:03:53;;;;;;;45.08;37.67;;;;;;;2.28;85.38;96693.19;4957243;28;20027;-71
2023/12/01 02:06:19;;;;;;;49.80;39.95;;;;;;;2.31;85.28;96681.28;4941225;28;20066;-72
2023/12/01 02:08:45;;;;;;;45.22;38.47;;;;;;;2.28;85.14;96661.31;4940600;28;20557;-71
2023/12/01 02:11:13;;;;;;;45.58;39.40;;;;;;;2.32;85.14;96662.47;4957404;28;20494;-71
2023/12/01 02:13:39;;;;;;;46.75;38.00;;;;;;;2.22;85.08;96664.09;4955241;28;20035;-71
2023/12/01 02:16:06;;;;;;;47.08;39.22;;;;;;;2.30;84.85;96685.78;4956997;28;20451;-71
2023/12/01 02:18:31;;;;;;;47.33;39.55;;;;;;;2.32;84.68;96680.25;4946933;28;20045;-71
2023/12/01 02:20:57;;;;;;;49.05;40.63;;;;;;;2.32;85.22;96680.25;4934627;28;20023;-71
2023/12/01 02:23:23;;;;;;;44.70;38.53;;;;;;;2.32;85.23;96678.41;4939204;28;20127;-70
2023/12/01 02:25:49;;;;;;;45.60;38.97;;;;;;;2.31;85.14;96666.16;4954976;28;20039;-70
2023/12/01 02:28:15;;;;;;;45.08;38.70;;;;;;;2.35;85.01;96672.63;4971330;28;20045;-70
2023/12/01 02:30:42;;;;;;;45.25;38.95;;;;;;;2.30;85.07;96664.53;4943174;28;20402;-70
2023/12/01 02:33:13;;;;;;;48.20;39.75;;;;;;;2.36;84.82;96653.00;4956754;28;20026;-70
2023/12/01 02:35:38;;;;;;;48.80;41.08;;;;;;;2.30;85.02;96642.47;4939026;28;20039;-70
2023/12/01 02:38:03;;;;;;;44.72;38.35;;;;;;;2.27;84.90;96654.38;4966864;28;20026;-71
2023/12/01 02:40:29;;;;;;;43.97;38.42;;;;;;;2.40;84.85;96680.72;4925324;28;20410;-71
2023/12/01 02:42:55;;;;;;;43.88;36.80;;;;;;;2.40;85.14;96691.34;4934084;28;20035;-71
2023/12/01 02:45:21;;;;;;;48.45;40.38;;;;;;;2.44;84.65;96694.34;4972577;28;20035;-71
2023/12/01 02:47:49;;;;;;;45.47;37.45;;;;;;;2.44;84.89;96691.69;4954637;28;20118;-71
2023/12/01 02:50:15;;;;;;;45.67;37.70;;;;;;;2.44;84.69;96679.22;4956575;28;20042;-72
2023/12/01 02:52:41;;;;;;;42.75;36.38;;;;;;;2.46;85.01;96669.16;4956382;28;20467;-70
2023/12/01 02:55:08;;;;;;;42.72;36.10;;;;;;;2.49;84.44;96668.72;4972639;28;20127;-71
2023/12/01 02:57:37;;;;;;;46.63;38.47;;;;;;;2.44;84.98;96660.63;4940083;28;20035;-71
2023/12/01 03:00:06;;;;;;;49.88;41.70;;;;;;;2.51;84.78;96671.94;4979714;28;20031;-71
2023/12/01 03:02:32;;;;;;;50.17;41.08;;;;;;;2.50;84.26;96675.63;4956654;28;20031;-71
2023/12/01 03:04:57;;;;;;;48.72;39.90;;;;;;;2.41;84.80;96666.38;4948073;28;20574;-71
2023/12/01 03:07:23;;;;;;;47.40;40.22;;;;;;;2.35;84.96;96656.69;4953313;28;20090;-72
2023/12/01 03:09:48;;;;;;;50.63;39.53;;;;;;;2.37;85.09;96675.88;4972538;28;20041;-72
2023/12/01 03:12:13;;;;;;;50.95;41.20;;;;;;;2.37;84.87;96670.56;4956185;28;20446;-72
2023/12/01 03:14:39;;;;;;;51.03;41.67;;;;;;;2.47;85.08;96694.72;4938217;28;20035;-71
2023/12/01 03:17:04;;;;;;;51.00;40.65;;;;;;;2.42;84.97;96694.59;4972031;28;20022;-71
2023/12/01 03:19:29;;;;;;;50.30;41.65;;;;;;;2.37;85.08;96683.03;4940137;28;20042;-71
2023/12/01 03:21:55;;;;;;;54.03;42.92;;;;;;;2.44;84.91;96695.16;4972185;28;20027;-71
2023/12/01 03:24:20;;;;;;;53.58;43.17;;;;;;;2.29;85.57;96700.09;4956116;28;20061;-72
2023/12/01 03:26:46;;;;;;;52.95;43.13;;;;;;;2.34;85.37;96712.69;4969562;28;20024;-72
2023/12/01 03:29:11;;;;;;;50.42;43.17;;;;;;;2.32;85.41;96720.06;4956078;28;20402;-71
2023/12/01 03:31:36;;;;;;;54.58;43.55;;;;;;;2.27;85.07;96707.47;4969260;28;20155;-72
2023/12/01 03:34:05;;;;;;;50.70;41.30;;;;;;;2.32;84.86;96720.06;4978105;28;20086;-72
2023/12/01 03:36:30;;;;;;;54.22;43.60;;;;;;;2.26;85.42;96727.13;4968330;28;20391;-72
2023/12/01 03:38:55;;;;;;;51.85;41.60;;;;;;;2.26;85.65;96711.19;4970935;28;20042;-72
2023/12/01 03:41:21;;;;;;;53.83;44.28;;;;;;;2.17;85.49;96699.25;4974491;28;20023;-72
2023/12/01 03:43:46;;;;;;;55.33;44.05;;;;;;;2.24;86.19;96710.59;4955664;28;20030;-71
2023/12/01 03:46:12;;;;;;;55.95;44.08;;;;;;;2.08;85.94;96690.81;4968326;28;20028;-72
2023/12/01 03:48:37;;;;;;;57.55;44.85;;;;;;;2.21;85.23;96702.28;4952175;28;20031;-72
2023/12/01 03:51:03;;;;;;;56.65;46.47;;;;;;;2.18;86.02;96702.72;4936553;28;20423;-71
2023/12/01 03:53:31;;;;;;;55.88;45.80;;;;;;;2.12;85.56;96685.88;4965218;28;20403;-72
2023/12/01 03:55:57;;;;;;;57.42;45.75;;;;;;;2.25;85.75;96698.94;4948644;28;20411;-72
2023/12/01 03:58:27;;;;;;;55.03;44.88;;;;;;;2.28;85.83;96695.84;4955667;28;20380;-71
2023/12/01 04:00:52;;;;;;;57.35;45.97;;;;;;;2.25;85.43;96698.13;4938128;28;20031;-71
2023/12/01 04:03:18;;;;;;;58.30;47.20;;;;;;;2.26;86.20;96703.22;4934603;28;20038;-72
2023/12/01 04:05:44;;;;;;;56.75;46.60;;;;;;;2.23;85.27;96701.03;4955049;28;20535;-72
2023/12/01 04:08:09;;;;;;;57.60;45.40;;;;;;;2.06;85.27;96678.81;4955317;28;20096;-71
2023/12/01 04:10:34;;;;;;;56.13;46.17;;;;;;;2.20;85.47;96706.78;4935271;29;20062;-72
2023/12/01 04:13:07;;;;;;;59.20;47.30;;;;;;;2.10;86.14;96695.94;4932283;28;20031;-72
2023/12/01 04:15:36;;;;;;;57.05;45.30;;;;;;;2.08;86.43;96703.28;4956479;28;20034;-72
2023/12/01 04:18:06;;;;;;;56.97;46.40;;;;;;;2.04;86.32;96691.50;4932044;28;20423;-72
2023/12/01 04:20:36;;;;;;;59.25;48.40;;;;;;;2.02;86.37;96693.59;4960166;28;20034;-72
2023/12/01 04:23:11;;;;;;;62.45;48.00;;;;;;;1.98;86.11;96676.50;4961476;28;20065;-72
2023/12/01 04:25:48;;;;;;;57.65;46.35;;;;;;;2.15;86.19;96695.25;4977677;28;20050;-73
2023/12/01 04:28:13;;;;;;;;;;;;;;;1.76;86.93;96696.63;4956469;28;20178;-72
2023/12/01 04:30:39;;;;;;;57.47;47.28;;;;;;;2.03;86.71;96689.91;4950779;28;19948;-72
2023/12/01 04:33:04;;;;;;;59.05;46.60;;;;;;;2.06;86.57;96694.75;4961305;28;20046;-73
2023/12/01 04:35:32;;;;;;;57.60;46.50;;;;;;;1.99;86.67;96702.81;4977269;28;20486;-72
2023/12/01 04:37:59;;;;;;;59.58;48.25;;;;;;;2.02;86.12;96701.56;4976553;28;20054;-72
2023/12/01 04:40:26;;;;;;;57.65;46.92;;;;;;;2.06;86.81;96711.50;4942782;28;20035;-73
2023/12/01 04:42:52;;;;;;;59.05;46.05;;;;;;;2.04;86.18;96718.06;4960879;28;20086;-72
2023/12/01 04:45:21;;;;;;;57.20;48.28;;;;;;;1.97;86.51;96698.75;4977259;28;20034;-72
2023/12/01 04:47:51;;;;;;;57.28;47.60;;;;;;;2.00;86.36;96701.78;4970502;28;20123;-72
2023/12/01 04:50:21;;;;;;;58.42;46.95;;;;;;;2.07;86.25;96707.81;4977660;28;20419;-73
2023/12/01 04:52:50;;;;;;;58.55;46.80;;;;;;;2.10;86.61;96717.16;4961389;28;20106;-72
2023/12/01 04:55:17;;;;;;;61.63;49.17;;;;;;;2.02;86.13;96709.50;4961178;28;20039;-73
2023/12/01 04:57:44;;;;;;;62.35;49.50;;;;;;;2.05;86.37;96717.03;4946684;28;20482;-72
2023/12/01 05:00:20;;;;;;;60.58;48.83;;;;;;;2.01;86.35;96713.19;4945535;28;20118;-73
2023/12/01 05:03:00;;;;;;;64.47;49.45;;;;;;;1.98;86.06;96716.31;4975050;28;20031;-73
2023/12/01 05:05:27;;;;;;;61.60;49.97;;;;;;;1.98;86.61;96729.59;4944168;28;20126;-72
2023/12/01 05:07:56;;;;;;;63.20;49.90;;;;;;;1.99;86.67;96718.75;4976078;28;20049;-73
2023/12/01 05:10:23;;;;;;;67.30;51.95;;;;;;;1.93;86.39;96701.06;4944276;28;20053;-73
2023/12/01 05:12:54;;;;;;;61.72;49.90;;;;;;;1.96;87.37;96705.13;4978144;28;20046;-74
2023/12/01 05:15:22;;;;;;;67.40;51.53;;;;;;;1.88;86.48;96694.81;4943147;28;20045;-74
2023/12/01 05:17:52;;;;;;;70.35;53.47;;;;;;;1.98;87.32;96718.97;4935339;28;20082;-73
2023/12/01 05:20:19;;;;;;;70.40;54.47;;;;;;;1.94;87.55;96712.47;4961130;28;20085;-74
2023/12/01 05:22:51;;;;;;;72.13;55.97;;;;;;;2.04;86.67;96718.06;4945171;28;20029;-72
2023/12/01 05:25:18;;;;;;;76.40;56.85;;;;;;;2.00;86.70;96722.22;4961485;28;20442;-72
2023/12/01 05:27:55;;;;;;;66.80;53.83;;;;;;;1.96;86.91;96707.78;4976539;28;20045;-72
2023/12/01 05:30:22;;;;;;;72.72;56.60;;;;;;;1.95;86.68;96706.16;4973000;28;20045;-72
2023/12/01 05:32:49;;;;;;;76.07;56.47;;;;;;;2.05;87.56;96719.69;4955862;28;20027;-72
2023/12/01 05:35:15;;;;;;;83.18;59.97;;;;;;;2.10;86.45;96722.47;4957643;28;20114;-72
2023/12/01 05:37:46;;;;;;;75.82;56.25;;;;;;;2.02;87.15;96712.16;4957970;28;20531;-72
2023/12/01 05:40:14;;;;;;;91.10;63.55;;;;;;;2.05;87.30;96711.72;4963136;28;20081;-72
2023/12/01 05:42:43;;;;;;;85.85;60.58;;;;;;;1.89;87.14;96683.19;4951101;28;20026;-72
2023/12/01 05:45:13;;;;;;;80.90;59.45;;;;;;;2.06;86.68;96723.94;4974026;28;20546;-71
2023/12/01 05:47:42;;;;;;;96.75;66.72;;;;;;;1.99;87.33;96732.00;4971818;28;20049;-73
2023/12/01 05:50:15;;;;;;;96.13;68.30;;;;;;;1.90;87.44;96727.25;4950469;28;20074;-73
2023/12/01 05:52:45;;;;;;;94.78;68.07;;;;;;;1.94;87.99;96725.75;4973773;28;20092;-72
2023/12/01 05:55:14;;;;;;;101.70;67.75;;;;;;;1.82;87.72;96719.63;4968642;28;20035;-72
2023/12/01 05:57:47;;;;;;;93.68;64.20;;;;;;;1.86;87.30;96734.03;4968808;28;20039;-71
2023/12/01 06:00:15;;;;;;;95.00;67.15;;;;;;;1.87;87.64;96738.31;4967421;28;20043;-71
2023/12/01 06:02:44;;;;;;;90.53;64.75;;;;;;;1.97;87.60;96738.59;4962450;28;20535;-71
2023/12/01 06:05:14;;;;;;;94.35;67.70;;;;;;;1.87;87.43;96722.38;4973690;28;20038;-71
2023/12/01 06:07:42;;;;;;;86.40;63.55;;;;;;;1.94;87.98;96737.19;4969403;28;20029;-72
2023/12/01 06:10:08;;;;;;;101.88;68.68;;;;;;;1.93;87.80;96735.59;4967255;28;20105;-72
2023/12/01 06:12:33;;;;;;;114.78;73.28;;;;;;;1.81;88.01;96712.69;4955539;28;20025;-73
2023/12/01 06:14:59;;;;;;;96.97;66.85;;;;;;;1.97;87.72;96743.88;4954410;28;20046;-71
2023/12/01 06:17:24;;;;;;;95.45;67.10;;;;;;;1.92;87.88;96735.78;4951232;28;20033;-72
2023/12/01 06:19:49;;;;;;;107.85;71.93;;;;;;;1.97;87.96;96754.50;4973411;28;20038;-73
2023/12/01 06:22:15;;;;;;;97.80;68.32;;;;;;;1.95;88.27;96745.97;4972750;28;20035;-73
2023/12/01 06:24:40;;;;;;;103.32;68.57;;;;;;;1.98;88.12;96745.53;4973126;28;20034;-74
2023/12/01 06:27:06;;;;;;;110.13;72.28;;;;;;;1.79;88.39;96709.44;4973051;28;20026;-73
2023/12/01 06:29:32;;;;;;;113.82;73.45;;;;;;;1.94;88.13;96739.84;4951618;28;20058;-73
2023/12/01 06:31:57;;;;;;;110.18;71.75;;;;;;;2.09;88.08;96763.31;4973071;28;20061;-73
2023/12/01 06:34:23;;;;;;;110.45;72.72;;;;;;;2.06;87.59;96747.84;4963868;28;20507;-73
2023/12/01 06:36:48;;;;;;;122.53;77.32;;;;;;;2.12;88.17;96762.88;4957437;28;20059;-73
2023/12/01 06:39:13;;;;;;;96.90;66.32;;;;;;;2.15;88.05;96773.03;4959378;28;20505;-73
2023/12/01 06:41:41;;;;;;;119.18;73.90;;;;;;;2.12;87.82;96762.88;4968344;28;20110;-75
2023/12/01 06:44:07;;;;;;;127.10;80.15;;;;;;;2.18;87.36;96761.97;4950175;28;20030;-73
2023/12/01 06:46:32;;;;;;;115.30;72.88;;;;;;;2.18;88.33;96767.28;4972484;28;20027;-73
2023/12/01 06:48:58;;;;;;;121.82;75.57;;;;;;;2.18;87.99;96775.25;4973696;28;20073;-73
2023/12/01 06:51:24;;;;;;;118.18;75.70;;;;;;;2.24;87.95;96790.25;4971823;28;20111;-74
2023/12/01 06:53:49;;;;;;;179.45;100.18;;;;;;;2.20;87.78;96797.06;4972550;28;20038;-74
2023/12/01 06:56:15;;;;;;;159.88;94.30;;;;;;;2.18;87.99;96804.44;4967851;28;20101;-74
2023/12/01 06:58:40;;;;;;;160.77;89.88;;;;;;;2.18;87.37;96815.06;4972548;28;20039;-73
2023/12/01 07:01:06;;;;;;;177.80;90.78;;;;;;;2.03;87.94;96791.56;4972777;28;20033;-73
2023/12/01 07:03:31;;;;;;;165.50;93.00;;;;;;;2.13;88.35;96801.66;4956297;28;20512;-74
2023/12/01 07:05:57;;;;;;;120.20;74.88;;;;;;;2.07;87.60;96786.63;4955946;28;20041;-73
2023/12/01 07:08:22;;;;;;;125.40;76.07;;;;;;;2.07;87.99;96789.28;4978616;28;20097;-73
2023/12/01 07:10:47;;;;;;;117.55;72.50;;;;;;;2.11;88.66;96793.13;4969548;28;20110;-73
2023/12/01 07:13:13;;;;;;;162.88;84.40;;;;;;;2.10;87.51;96786.97;4979192;28;20042;-73
2023/12/01 07:15:38;;;;;;;183.85;86.95;;;;;;;2.16;88.06;96803.06;4948939;29;20111;-74
2023/12/01 07:18:08;;;;;;;171.00;84.35;;;;;;;2.05;87.67;96786.06;4956049;28;20065;-72
2023/12/01 07:20:33;;;;;;;173.70;81.82;;;;;;;2.05;88.36;96809.94;4959633;28;20038;-73
2023/12/01 07:22:59;;;;;;;150.98;76.07;;;;;;;2.05;87.94;96828.53;4954657;28;20019;-73
2023/12/01 07:25:25;;;;;;;186.63;84.97;;;;;;;2.02;88.49;96824.47;4939657;28;20035;-73
2023/12/01 07:27:58;;;;;;;192.23;88.90;;;;;;;1.98;88.30;96825.16;4953460;28;20070;-73
2023/12/01 07:30:24;;;;;;;182.73;83.57;;;;;;;2.03;88.40;96830.59;4973333;28;20038;-73
2023/12/01 07:32:50;;;;;;;130.95;70.80;;;;;;;2.04;88.07;96824.25;4966328;28;20096;-73
2023/12/01 07:35:16;;;;;;;121.82;66.63;;;;;;;2.06;88.12;96822.19;4973097;28;20466;-73
2023/12/01 07:37:47;;;;;;;148.98;74.97;;;;;;;2.07;88.09;96819.31;4955778;28;20090;-73
2023/12/01 07:40:21;;;;;;;162.73;75.78;;;;;;;2.10;88.87;96828.69;4942145;28;20069;-73
2023/12/01 07:42:51;;;;;;;144.07;73.82;;;;;;;1.98;88.84;96819.84;4955421;28;20062;-73
2023/12/01 07:45:17;;;;;;;143.13;71.38;;;;;;;1.96;88.49;96813.97;4971562;28;20403;-73
2023/12/01 07:47:50;;;;;;;107.93;61.95;;;;;;;2.06;89.29;96832.78;4955720;28;20391;-73
2023/12/01 07:50:17;;;;;;;117.13;64.72;;;;;;;2.10;88.33;96823.38;4939947;28;20035;-73
2023/12/01 07:52:43;;;;;;;113.88;64.45;;;;;;;2.12;89.02;96818.63;4971655;28;20170;-73
2023/12/01 07:55:09;;;;;;;97.45;56.25;;;;;;;2.12;88.35;96831.91;4961414;28;20050;-73
2023/12/01 07:57:35;;;;;;;109.32;62.20;;;;;;;2.12;89.33;96842.53;4955119;28;20081;-73
2023/12/01 08:00:00;;;;;;;102.43;57.63;;;;;;;2.06;88.77;96851.38;4965504;28;20085;-73
2023/12/01 08:02:27;;;;;;;102.20;57.03;;;;;;;1.98;88.37;96857.00;4968349;28;20031;-73
2023/12/01 08:04:52;;;;;;;85.40;52.22;;;;;;;2.08;89.05;96859.94;4970980;28;20118;-73
2023/12/01 08:07:18;;;;;;;130.40;66.32;;;;;;;2.08;88.93;96849.31;4971013;28;20041;-73
2023/12/01 08:09:43;;;;;;;113.93;62.65;;;;;;;2.02;88.56;96832.44;4954205;28;20051;-73
2023/12/01 08:12:08;;;;;;;82.05;52.05;;;;;;;2.08;88.39;96830.72;4972587;28;20031;-73
2023/12/01 08:14:34;;;;;;;81.63;54.85;;;;;;;2.09;89.05;96837.66;4970130;28;20045;-73
2023/12/01 08:16:59;;;;;;;77.55;52.03;;;;;;;2.11;88.22;96832.94;4949570;28;20058;-73
2023/12/01 08:19:25;;;;;;;106.90;60.85;;;;;;;2.18;88.14;96840.81;4955297;28;20049;-73
2023/12/01 08:21:50;;;;;;;88.63;55.85;;;;;;;2.26;87.88;96837.84;4964638;28;20038;-74
2023/12/01 08:24:20;;;;;;;97.55;58.20;;;;;;;2.28;87.82;96825.97;4968308;28;20461;-73
2023/12/01 08:26:46;;;;;;;81.30;52.92;;;;;;;2.37;88.18;96823.78;4962713;28;20030;-73
2023/12/01 08:29:12;;;;;;;88.20;56.08;;;;;;;2.28;87.87;96809.22;4950340;28;20066;-74
2023/12/01 08:31:39;;;;;;;95.15;59.92;;;;;;;2.43;87.55;96807.75;4972180;28;20054;-73
2023/12/01 08:34:07;;;;;;;80.72;55.92;;;;;;;2.52;87.64;96826.84;4955347;28;20109;-73
2023/12/01 08:36:34;;;;;;;72.30;49.30;;;;;;;2.55;87.57;96827.19;4967502;28;20378;-73
2023/12/01 08:39:00;;;;;;;79.43;54.47;;;;;;;2.41;87.16;96809.84;4951569;28;20042;-73
2023/12/01 08:41:25;;;;;;;66.85;49.38;;;;;;;2.54;87.58;96828.25;4953804;28;20039;-73
2023/12/01 08:43:50;;;;;;;70.57;47.75;;;;;;;2.54;86.88;96825.59;4955051;28;20419;-73
2023/12/01 08:46:16;;;;;;;61.70;45.70;;;;;;;2.58;87.33;96832.06;4934988;29;20118;-73
2023/12/01 08:48:41;;;;;;;67.38;46.80;;;;;;;2.62;86.45;96822.59;4971070;28;20116;-73
2023/12/01 08:51:07;;;;;;;60.85;43.72;;;;;;;2.59;86.18;96817.72;4973055;28;20100;-73
2023/12/01 08:53:32;;;;;;;60.47;44.88;;;;;;;2.60;86.58;96816.69;4950531;28;20046;-74
2023/12/01 08:55:58;;;;;;;48.55;38.25;;;;;;;2.54;86.14;96819.47;4970129;28;20038;-73
2023/12/01 08:58:24;;;;;;;46.97;36.25;;;;;;;2.47;86.44;96835.50;4971033;28;20046;-74
2023/12/01 09:00:49;;;;;;;48.20;36.85;;;;;;;2.46;85.81;96839.19;4952966;28;20054;-74
2023/12/01 09:03:14;;;;;;;53.67;39.63;;;;;;;2.57;85.95;96864.16;4954874;28;20066;-74
2023/12/01 09:05:40;;;;;;;47.90;36.50;;;;;;;2.59;85.88;96865.56;4955695;28;20031;-73
2023/12/01 09:08:05;;;;;;;45.10;34.42;;;;;;;2.56;85.86;96866.03;4950792;28;20483;-74
2023/12/01 09:10:31;;;;;;;53.03;38.55;;;;;;;2.62;85.79;96881.06;4971793;28;20027;-73
2023/12/01 09:12:57;;;;;;;40.97;32.53;;;;;;;2.59;85.45;96881.50;4957002;28;20077;-74
2023/12/01 09:15:22;;;;;;;38.92;31.30;;;;;;;2.53;85.73;96871.78;4970980;28;20035;-73
2023/12/01 09:17:48;;;;;;;42.97;33.40;;;;;;;2.52;85.11;96883.44;4923043;28;20042;-73
2023/12/01 09:20:13;;;;;;;39.40;32.22;;;;;;;2.43;85.58;96881.31;4970842;28;20073;-73
2023/12/01 09:22:39;;;;;;;41.65;33.05;;;;;;;2.58;84.61;96895.84;4970262;28;20388;-73
2023/12/01 09:25:05;;;;;;;41.17;31.45;;;;;;;2.56;85.14;96889.94;4955489;28;20019;-73
2023/12/01 09:27:30;;;;;;;38.20;30.85;;;;;;;2.51;85.27;96895.13;4952413;28;20045;-73
2023/12/01 09:29:55;;;;;;;42.95;31.92;;;;;;;2.51;85.11;96895.13;4967890;28;20474;-73
2023/12/01 09:32:21;;;;;;;40.97;30.67;;;;;;;2.62;84.93;96912.94;4917648;28;20038;-73
2023/12/01 09:34:47;;;;;;;36.97;29.02;;;;;;;2.62;84.62;96891.69;4957063;28;20030;-73
2023/12/01 09:37:12;;;;;;;37.75;27.95;;;;;;;2.49;84.03;96859.19;4973953;28;20184;-73
2023/12/01 09:39:38;;;;;;;39.78;29.88;;;;;;;2.62;83.81;96859.81;4960539;28;20038;-74
2023/12/01 09:42:11;;;;;;;34.78;27.60;;;;;;;2.56;83.81;96860.72;4968646;28;20542;-73
2023/12/01 09:44:36;;;;;;;32.85;26.10;;;;;;;2.59;84.48;96875.41;4957981;28;20479;-73
2023/12/01 09:47:09;;;;;;;35.17;26.15;;;;;;;2.72;83.60;96885.81;4973189;28;20041;-73
2023/12/01 09:49:35;;;;;;;36.35;26.70;;;;;;;2.70;83.27;96874.63;4958744;28;20517;-72
2023/12/01 09:52:03;;;;;;;37.50;28.52;;;;;;;2.69;83.08;96873.81;4970705;28;20034;-73
2023/12/01 09:54:32;;;;;;;37.20;27.55;;;;;;;2.58;83.63;96858.63;4973194;28;20042;-73
2023/12/01 09:56:58;;;;;;;32.92;26.35;;;;;;;2.68;83.55;96879.34;4972800;28;20564;-74
2023/12/01 09:59:23;;;;;;;36.58;27.50;;;;;;;2.47;83.02;96864.72;4957756;28;20121;-73
2023/12/01 10:01:50;;;;;;;38.40;28.20;;;;;;;2.53;83.00;96871.78;4957702;28;20486;-73
2023/12/01 10:04:15;;;;;;;39.97;27.65;;;;;;;2.40;83.08;96861.34;4957336;28;20038;-73
2023/12/01 10:06:41;;;;;;;36.83;27.95;;;;;;;2.54;82.81;96869.94;4957354;28;20026;-73
2023/12/01 10:09:10;;;;;;;37.67;27.77;;;;;;;2.55;83.28;96867.06;4973405;28;20034;-73
2023/12/01 10:11:35;;;;;;;39.58;28.50;;;;;;;2.62;82.52;96862.47;4953685;28;20131;-73
2023/12/01 10:14:06;;;;;;;33.03;25.70;;;;;;;2.62;82.92;96869.63;4958966;28;20189;-74
2023/12/01 10:16:34;;;;;;;37.83;28.23;;;;;;;2.68;82.78;96869.50;4967594;28;20031;-73
2023/12/01 10:19:01;;;;;;;36.70;27.50;;;;;;;2.58;82.41;96858.63;4957096;28;20545;-73
2023/12/01 10:21:49;;;;;;;37.13;28.58;;;;;;;2.58;82.18;96866.63;4973313;28;20034;-73
2023/12/01 10:24:23;;;;;;;40.22;29.75;;;;;;;2.67;82.63;96862.59;4946197;28;20475;-73
2023/12/01 10:26:49;;;;;;;38.03;28.00;;;;;;;2.66;82.98;96865.47;4973098;28;20035;-73
2023/12/01 10:29:32;;;;;;;40.17;29.50;;;;;;;2.74;82.13;96889.88;4962879;28;20475;-73
2023/12/01 10:32:04;;;;;;;37.83;28.08;;;;;;;2.87;81.91;96877.44;4940563;28;20041;-74
2023/12/01 10:34:30;;;;;;;35.58;26.67;;;;;;;2.84;82.20;96883.19;4969899;28;20053;-73
2023/12/01 10:36:56;;;;;;;36.95;28.33;;;;;;;2.83;82.36;96881.56;4953155;28;20027;-73
2023/12/01 10:39:27;;;;;;;37.92;27.38;;;;;;;2.80;81.97;96865.03;4941599;28;20549;-73
2023/12/01 10:41:56;;;;;;;38.60;28.17;;;;;;;2.64;81.69;96852.41;4942997;28;20035;-73
2023/12/01 10:44:24;;;;;;;35.72;27.13;;;;;;;2.75;81.22;96856.94;4971321;28;20405;-73
2023/12/01 10:46:51;;;;;;;37.42;27.73;;;;;;;2.88;81.81;96874.53;4968754;28;20050;-73
2023/12/01 10:49:19;;;;;;;37.03;26.40;;;;;;;2.84;81.34;96852.13;4952753;28;20122;-73
2023/12/01 10:51:46;;;;;;;34.63;27.00;;;;;;;2.79;81.65;96850.16;4973519;28;20046;-73
2023/12/01 10:54:14;;;;;;;36.35;26.75;;;;;;;2.80;81.84;96851.75;4968415;28;20026;-72
2023/12/01 10:57:02;;;;;;;32.53;25.05;;;;;;;2.78;80.76;96858.31;4967826;28;20027;-73
2023/12/01 10:59:28;;;;;;;33.63;24.65;;;;;;;2.86;81.57;96857.19;4971904;28;20050;-73
2023/12/01 11:01:54;;;;;;;33.20;25.30;;;;;;;2.80;81.12;96840.31;4938017;28;20439;-73
2023/12/01 11:04:27;;;;;;;33.58;25.50;;;;;;;2.83;81.08;96844.34;4972076;28;20487;-73
2023/12/01 11:07:04;;;;;;;35.78;27.15;;;;;;;2.98;80.90;96855.38;4972160;28;20037;-73
2023/12/01 11:09:59;;;;;;;34.88;26.42;;;;;;;2.89;80.43;96849.59;4965982;28;20038;-73
2023/12/01 11:13:01;;;;;;;38.60;26.10;;;;;;;2.92;80.64;96853.63;4916301;28;20089;-74
2023/12/01 11:15:28;;;;;;;35.33;25.75;;;;;;;3.00;81.06;96850.63;4968651;28;20105;-73
2023/12/01 11:17:57;;;;;;;31.40;23.95;;;;;;;2.94;80.25;96825.75;4972287;28;20030;-73
2023/12/01 11:20:41;;;;;;;29.90;23.45;;;;;;;3.04;80.48;96835.81;4965327;28;20151;-73
2023/12/01 11:23:09;;;;;;;27.95;22.88;;;;;;;3.01;80.82;96846.94;4934179;28;20491;-73
2023/12/01 11:25:42;;;;;;;30.55;23.05;;;;;;;2.96;79.95;96830.84;4967375;28;20034;-73